Sunday, November 18, 2018, 2:21 PM GMT
Back to Local

CWQH, Lennoxville

Location: , , Canada Lat: 45.367
Local Time: 2:21 PM GMT (14:21 GMT) Lon: -71.817
Time Zone: GMT Elev: 593 ft

Show me the last for .
Show Coded

Time T Td Feel RH Dir Speed Gust Alt SLP Vis Weather Sky Remarks
2018-11-18 14:00 16 11 - 80 130° 2 - - - 0 None
2018-11-18 13:00 14 10 - 85 190° 2 - - - 0 None
2018-11-18 12:00 15 11 - 83 270° 1 - - - 0 None
2018-11-18 11:00 15 10 9 80 250° 3 - - - 0 None
2018-11-18 10:00 17 13 9 84 260° 6 - - - 0 None
2018-11-18 09:00 17 14 12 88 240° 3 - - - 0 None
2018-11-18 08:00 18 15 11 87 250° 5 - - - 0 None
2018-11-18 07:00 19 15 - 83 270° 1 - - - 0 None
2018-11-18 06:00 19 15 14 82 210° 3 - - - 0 None
2018-11-18 05:00 21 16 - 79 210° 1 - - - 0 None
2018-11-18 04:00 24 17 16 75 310° 7 - - - 0 None
2018-11-18 03:00 26 22 18 84 300° 8 - - - 0 None
2018-11-18 02:00 28 22 19 76 290° 9 - - - 0 Peak wind: 23 mph (20 kts) from 320° at 10 min
2018-11-18 01:00 30 24 22 78 300° 9 - - - 0 None
2018-11-18 00:00 32 27 23 81 300° 10 - - - 0 None
2018-11-17 23:00 32 29 26 91 230° 6 - - - 0 None
2018-11-17 22:00 31 30 27 93 250° 5 - - - 0 1-hr Precip Total: 0.05"
2018-11-17 21:00 32 30 - 95 300° 2 - - - 0 None
2018-11-17 20:00 32 31 27 95 300° 5 - - - 0 None
2018-11-17 19:00 34 28 27 78 300° 8 - - - 0 None
2018-11-17 18:00 34 27 28 76 300° 7 - - - 0 None
2018-11-17 17:00 34 28 27 79 270° 8 - - - 0 None
2018-11-17 16:00 31 29 24 89 270° 8 - - - 0 None
2018-11-17 15:00 32 29 26 88 280° 6 - - - 0 None

Support USWX by starting your Amazon purchase here.